createdAt,value
2022-11-09T00:02:56.498Z,9.70
2022-11-09T00:06:01.787Z,9.52
2022-11-09T00:09:08.575Z,8.55
2022-11-09T00:12:13.095Z,8.30
2022-11-09T00:15:17.392Z,9.52
2022-11-09T00:18:21.554Z,9.98
2022-11-09T00:21:26.512Z,9.93
2022-11-09T00:24:30.938Z,10.10
2022-11-09T00:27:35.289Z,11.38
2022-11-09T00:30:39.817Z,8.55
2022-11-09T00:33:44.203Z,9.25
2022-11-09T00:36:48.813Z,7.88
2022-11-09T00:39:52.996Z,9.40
2022-11-09T00:42:57.189Z,8.55
2022-11-09T00:46:01.590Z,8.60
2022-11-09T00:49:05.937Z,9.68
2022-11-09T00:52:10.749Z,7.00
2022-11-09T00:55:15.262Z,9.00
2022-11-09T00:58:19.661Z,8.73
2022-11-09T01:01:24.597Z,8.45
2022-11-09T01:04:29.233Z,9.00
2022-11-09T01:07:33.642Z,7.25
2022-11-09T01:10:40.777Z,7.32
2022-11-09T01:13:45.843Z,7.57
2022-11-09T01:16:50.418Z,8.33
2022-11-09T01:19:54.798Z,7.43
2022-11-09T01:23:00.002Z,7.97
2022-11-09T01:26:10.881Z,7.95
2022-11-09T01:29:15.304Z,7.35
2022-11-09T01:32:19.497Z,7.25
2022-11-09T01:35:23.748Z,7.45
2022-11-09T01:38:29.219Z,8.00
2022-11-09T01:41:33.500Z,7.20
2022-11-09T01:44:41.201Z,7.38
2022-11-09T01:48:04.299Z,6.90
2022-11-09T01:51:14.401Z,7.13
2022-11-09T01:54:25.988Z,5.85
2022-11-09T01:57:37.909Z,6.07
2022-11-09T02:00:45.951Z,7.10
2022-11-09T02:04:17.305Z,7.35
2022-11-09T02:07:23.635Z,6.78
2022-11-09T02:10:35.117Z,6.43
2022-11-09T02:13:42.725Z,7.20
2022-11-09T02:16:48.810Z,7.03
2022-11-09T02:22:59.140Z,5.72
2022-11-09T02:26:15.781Z,5.65
2022-11-09T02:29:27.416Z,5.05
2022-11-09T02:32:32.734Z,6.65
2022-11-09T02:35:37.690Z,6.78
2022-11-09T02:38:42.826Z,5.65
2022-11-09T02:41:55.188Z,5.15
2022-11-09T02:45:01.457Z,5.82
2022-11-09T02:48:07.400Z,6.18
2022-11-09T02:51:14.427Z,5.68
2022-11-09T02:54:21.405Z,4.80
2022-11-09T02:57:26.543Z,6.00
2022-11-09T03:00:31.039Z,6.03
2022-11-09T03:03:35.409Z,6.35
2022-11-09T03:06:39.872Z,5.45
2022-11-09T03:09:49.960Z,5.15
2022-11-09T03:12:56.355Z,5.13
2022-11-09T03:19:13.124Z,6.53
2022-11-09T03:22:17.570Z,4.97
2022-11-09T03:25:23.184Z,6.63
2022-11-09T03:28:28.003Z,4.20
2022-11-09T03:31:32.528Z,4.73
2022-11-09T03:34:41.015Z,4.43
2022-11-09T03:37:46.385Z,5.05
2022-11-09T03:40:50.713Z,5.13
2022-11-09T03:43:55.773Z,4.35
2022-11-09T03:47:00.127Z,4.50
2022-11-09T03:50:05.050Z,5.75
2022-11-09T03:53:11.542Z,5.40
2022-11-09T03:56:16.002Z,6.53
2022-11-09T03:59:20.503Z,5.53
2022-11-09T04:02:24.774Z,5.55
2022-11-09T04:05:29.653Z,6.93
2022-11-09T04:08:34.022Z,7.63
2022-11-09T04:11:38.642Z,7.95
2022-11-09T04:14:42.972Z,12.02
2022-11-09T04:17:56.879Z,9.38
2022-11-09T04:21:01.043Z,8.35
2022-11-09T04:24:05.786Z,5.38
2022-11-09T04:27:09.947Z,9.50
2022-11-09T04:30:14.354Z,6.40
2022-11-09T04:33:19.158Z,5.05
2022-11-09T04:36:24.328Z,4.87
2022-11-09T04:39:28.766Z,6.72
2022-11-09T04:42:33.538Z,5.57
2022-11-09T04:45:38.133Z,6.23
2022-11-09T04:48:42.353Z,8.15
2022-11-09T04:51:46.991Z,6.03
2022-11-09T04:54:51.044Z,6.82
2022-11-09T04:57:55.557Z,6.07
2022-11-09T05:01:07.677Z,6.35
2022-11-09T05:04:12.064Z,5.88
2022-11-09T05:07:16.611Z,5.85
2022-11-09T05:10:21.542Z,5.90
2022-11-09T05:13:27.215Z,5.40
2022-11-09T05:16:32.087Z,5.78
2022-11-09T05:19:36.791Z,5.38
2022-11-09T05:22:59.966Z,4.63
2022-11-09T05:26:04.489Z,5.05
2022-11-09T05:29:13.544Z,5.30
2022-11-09T05:32:18.038Z,4.65
2022-11-09T05:35:23.029Z,4.95
2022-11-09T05:38:27.230Z,5.40
2022-11-09T05:41:31.575Z,5.47
2022-11-09T05:44:35.810Z,5.43
2022-11-09T05:47:41.157Z,5.60
2022-11-09T05:50:46.123Z,5.00
2022-11-09T05:53:58.424Z,7.85
2022-11-09T05:57:03.000Z,7.93
2022-11-09T06:00:10.970Z,12.25
2022-11-09T06:03:18.660Z,12.52
2022-11-09T06:06:23.279Z,12.63
2022-11-09T06:09:27.588Z,11.55
2022-11-09T06:12:32.874Z,8.23
2022-11-09T06:15:37.257Z,8.40
2022-11-09T06:18:41.745Z,7.65
2022-11-09T06:21:46.684Z,6.82
2022-11-09T06:24:52.093Z,7.45
2022-11-09T06:27:57.067Z,8.38
2022-11-09T06:31:02.956Z,6.93
2022-11-09T06:34:07.149Z,7.43
2022-11-09T06:37:11.623Z,7.38
2022-11-09T06:40:16.231Z,7.88
2022-11-09T06:43:21.211Z,7.22
2022-11-09T06:46:26.424Z,8.05
2022-11-09T06:49:30.682Z,7.70
2022-11-09T06:52:34.845Z,9.45
2022-11-09T06:55:39.722Z,8.07
2022-11-09T06:58:44.765Z,8.50
2022-11-09T07:01:49.128Z,7.95
2022-11-09T07:04:53.626Z,7.70
2022-11-09T07:07:58.952Z,8.15
2022-11-09T07:11:16.999Z,8.60
2022-11-09T07:14:21.287Z,7.60
2022-11-09T07:17:25.844Z,10.95
2022-11-09T07:20:31.094Z,8.48
2022-11-09T07:23:35.789Z,8.82
2022-11-09T07:26:39.998Z,10.57
2022-11-09T07:29:44.177Z,10.55
2022-11-09T07:36:16.884Z,10.75
2022-11-09T07:39:24.191Z,12.57
2022-11-09T07:42:28.462Z,23.35
2022-11-09T07:45:34.490Z,17.13
2022-11-09T07:48:38.851Z,16.85
2022-11-09T07:51:43.370Z,26.83
2022-11-09T07:54:51.971Z,20.00
2022-11-09T07:57:58.630Z,17.23
2022-11-09T08:01:03.226Z,34.10
2022-11-09T08:04:07.832Z,26.30
2022-11-09T08:07:12.489Z,43.67
2022-11-09T08:10:17.279Z,36.63
2022-11-09T08:13:22.851Z,45.60
2022-11-09T08:16:27.746Z,110.18
2022-11-09T08:19:32.135Z,98.28
2022-11-09T08:22:46.347Z,92.07
2022-11-09T08:25:52.099Z,58.03
2022-11-09T08:28:56.806Z,72.95
2022-11-09T08:32:01.868Z,56.45
2022-11-09T08:35:06.927Z,65.45
2022-11-09T08:38:11.371Z,64.10
2022-11-09T08:41:15.950Z,53.45
2022-11-09T08:44:20.066Z,57.92
2022-11-09T08:47:24.715Z,59.88
2022-11-09T08:50:30.891Z,78.07
2022-11-09T08:53:35.199Z,75.63
2022-11-09T08:56:39.748Z,82.00
2022-11-09T08:59:44.268Z,72.00
2022-11-09T09:02:48.706Z,67.10
2022-11-09T09:05:53.397Z,67.40
2022-11-09T09:08:57.743Z,63.53
2022-11-09T09:12:02.815Z,78.15
2022-11-09T09:15:08.174Z,40.00
2022-11-09T09:18:12.823Z,52.88
2022-11-09T09:21:18.796Z,64.85
2022-11-09T09:27:27.388Z,63.63
2022-11-09T09:30:32.908Z,113.38
2022-11-09T09:33:40.407Z,132.55
2022-11-09T09:36:47.997Z,138.88
2022-11-09T09:39:52.786Z,134.90
2022-11-09T09:42:57.811Z,121.65
2022-11-09T09:46:05.958Z,133.85
2022-11-09T09:49:23.466Z,139.82
2022-11-09T09:52:50.634Z,122.63
2022-11-09T09:56:14.009Z,111.18
2022-11-09T09:59:42.119Z,105.05
2022-11-09T10:02:46.706Z,101.82
2022-11-09T10:09:10.876Z,62.85
2022-11-09T10:12:36.196Z,62.78
2022-11-09T10:16:06.823Z,67.68
2022-11-09T10:19:50.282Z,49.65
2022-11-09T10:23:20.009Z,21.92
2022-11-09T10:26:38.357Z,19.13
2022-11-09T10:29:54.908Z,23.67
2022-11-09T10:33:15.736Z,33.33
2022-11-09T10:36:54.245Z,32.33
2022-11-09T10:40:29.874Z,34.03
2022-11-09T10:43:53.173Z,33.78
2022-11-09T10:47:18.390Z,44.15
2022-11-09T10:50:57.250Z,64.95
2022-11-09T10:54:38.814Z,48.38
2022-11-09T10:58:14.757Z,48.17
2022-11-09T11:01:38.529Z,51.70
2022-11-09T11:05:08.360Z,33.55
2022-11-09T11:12:17.652Z,42.13
2022-11-09T11:15:45.604Z,32.22
2022-11-09T11:19:33.334Z,44.05
2022-11-09T11:23:11.676Z,32.90
2022-11-09T11:27:10.372Z,33.55
2022-11-09T11:30:40.488Z,29.88
2022-11-09T11:34:04.376Z,27.13
2022-11-09T11:37:57.448Z,24.73
2022-11-09T11:41:57.025Z,23.40
2022-11-09T11:45:43.183Z,23.73
2022-11-09T11:49:32.950Z,21.52
2022-11-09T11:53:04.733Z,21.75
2022-11-09T11:56:31.246Z,22.15
2022-11-09T12:00:12.418Z,23.85
2022-11-09T12:03:36.080Z,20.95
2022-11-09T12:07:07.620Z,22.63
2022-11-09T12:10:41.324Z,22.85
2022-11-09T12:14:39.431Z,20.60
2022-11-09T12:18:38.867Z,19.77
2022-11-09T12:22:24.695Z,21.13
2022-11-09T12:26:24.011Z,22.42
2022-11-09T12:30:00.806Z,28.50
2022-11-09T12:37:06.023Z,20.27
2022-11-09T12:40:55.205Z,32.17
2022-11-09T12:44:54.627Z,22.52
2022-11-09T12:48:31.678Z,22.73
2022-11-09T12:51:58.942Z,19.92
2022-11-09T12:55:43.778Z,28.20
2022-11-09T12:59:29.364Z,21.23
2022-11-09T13:02:58.557Z,21.92
2022-11-09T13:06:34.210Z,22.10
2022-11-09T13:10:00.693Z,26.42
2022-11-09T13:13:26.291Z,21.13
2022-11-09T13:16:50.339Z,22.15
2022-11-09T13:20:58.064Z,26.15
2022-11-09T13:24:32.656Z,21.92
2022-11-09T13:27:55.343Z,25.48
2022-11-09T13:31:57.781Z,28.27
2022-11-09T13:35:41.902Z,21.73
2022-11-09T13:39:34.154Z,25.85
2022-11-09T13:43:02.705Z,24.15
2022-11-09T13:46:29.905Z,24.08
2022-11-09T13:49:53.651Z,25.95
2022-11-09T13:53:35.086Z,23.23
2022-11-09T13:56:58.487Z,23.83
2022-11-09T14:00:25.072Z,22.90
2022-11-09T14:03:53.106Z,23.10
2022-11-09T14:07:21.501Z,20.65
2022-11-09T14:11:06.233Z,19.73
2022-11-09T14:14:50.179Z,57.90
2022-11-09T14:18:39.894Z,15.57
2022-11-09T14:22:02.703Z,23.50
2022-11-09T14:25:26.758Z,17.25
2022-11-09T14:28:49.695Z,23.23
2022-11-09T14:32:27.352Z,17.95
2022-11-09T14:35:51.538Z,17.83
2022-11-09T14:39:23.990Z,11.18
2022-11-09T14:43:29.534Z,10.60
2022-11-09T14:46:57.336Z,9.98
2022-11-09T14:50:29.881Z,8.73
2022-11-09T14:53:52.763Z,8.57
2022-11-09T14:57:19.221Z,7.70
2022-11-09T15:04:17.910Z,9.05
2022-11-09T15:07:40.930Z,9.68
2022-11-09T15:11:03.896Z,9.60
2022-11-09T15:14:35.214Z,7.13
2022-11-09T15:17:58.635Z,7.85
2022-11-09T15:21:27.656Z,5.78
2022-11-09T15:24:50.647Z,10.05
2022-11-09T15:28:16.239Z,9.27
2022-11-09T15:31:39.400Z,8.40
2022-11-09T15:35:02.160Z,4.07
2022-11-09T15:38:43.311Z,4.55
2022-11-09T15:42:06.812Z,5.53
2022-11-09T15:45:29.586Z,5.97
2022-11-09T15:48:52.647Z,6.13
2022-11-09T15:52:15.373Z,6.28
2022-11-09T15:55:37.961Z,6.63
2022-11-09T15:59:00.700Z,5.95
2022-11-09T16:02:23.471Z,6.43
2022-11-09T16:05:47.109Z,4.72
2022-11-09T16:09:10.112Z,4.40
2022-11-09T16:12:33.093Z,7.40
2022-11-09T16:16:05.028Z,10.52
2022-11-09T16:19:28.054Z,8.48
2022-11-09T16:22:51.042Z,7.45
2022-11-09T16:26:16.597Z,15.20
2022-11-09T16:29:42.077Z,20.13
2022-11-09T16:33:04.852Z,6.32
2022-11-09T16:36:27.807Z,4.80
2022-11-09T16:39:51.732Z,5.18
2022-11-09T16:43:14.309Z,7.57
2022-11-09T16:46:37.578Z,8.93
2022-11-09T16:50:00.702Z,6.10
2022-11-09T16:53:26.912Z,4.68
2022-11-09T16:56:50.286Z,7.65
2022-11-09T17:00:14.045Z,6.30
2022-11-09T17:03:36.797Z,4.30
2022-11-09T17:07:00.010Z,4.43
2022-11-09T17:10:22.554Z,4.65
2022-11-09T17:13:45.555Z,6.22
2022-11-09T17:17:08.087Z,6.97
2022-11-09T17:20:31.849Z,4.50
2022-11-09T17:23:56.174Z,4.35
2022-11-09T17:27:18.971Z,2.90
2022-11-09T17:30:42.820Z,2.67
2022-11-09T17:34:05.968Z,2.83
2022-11-09T17:37:29.630Z,2.80
2022-11-09T17:40:52.033Z,4.43
2022-11-09T17:44:14.952Z,4.03
2022-11-09T17:47:37.855Z,7.38
2022-11-09T17:51:01.490Z,10.55
2022-11-09T17:54:24.290Z,13.25
2022-11-09T17:57:46.948Z,8.00
2022-11-09T18:01:12.503Z,8.35
2022-11-09T18:04:35.086Z,10.82
2022-11-09T18:07:57.821Z,8.48
2022-11-09T18:11:20.430Z,7.63
2022-11-09T18:14:44.738Z,7.55
2022-11-09T18:18:08.497Z,7.97
2022-11-09T18:21:32.559Z,8.88
2022-11-09T18:24:58.339Z,10.13
2022-11-09T18:28:21.416Z,9.00
2022-11-09T18:31:44.511Z,9.52
2022-11-09T18:35:08.656Z,9.25
2022-11-09T18:38:32.384Z,7.50
2022-11-09T18:41:55.730Z,9.30
2022-11-09T18:45:18.502Z,8.98
2022-11-09T18:48:41.935Z,7.28
2022-11-09T18:52:04.650Z,6.90
2022-11-09T18:55:27.459Z,7.00
2022-11-09T18:58:55.598Z,5.03
2022-11-09T19:02:18.466Z,6.13
2022-11-09T19:05:45.721Z,8.93
2022-11-09T19:09:29.545Z,7.47
2022-11-09T19:12:52.352Z,8.77
2022-11-09T19:16:16.495Z,8.50
2022-11-09T19:19:39.381Z,6.68
2022-11-09T19:23:02.078Z,8.40
2022-11-09T19:26:25.108Z,9.35
2022-11-09T19:29:48.727Z,9.05
2022-11-09T19:33:12.082Z,9.40
2022-11-09T19:36:34.922Z,8.85
2022-11-09T19:39:57.862Z,7.93
2022-11-09T19:43:21.308Z,7.30
2022-11-09T19:46:44.869Z,8.70
2022-11-09T19:50:08.423Z,8.73
2022-11-09T19:53:32.309Z,7.93
2022-11-09T19:56:55.058Z,8.30
2022-11-09T20:00:19.451Z,7.82
2022-11-09T20:03:42.184Z,7.35
2022-11-09T20:07:05.965Z,8.05
2022-11-09T20:10:28.486Z,8.02
2022-11-09T20:13:51.052Z,6.43
2022-11-09T20:17:13.957Z,6.10
2022-11-09T20:20:36.994Z,5.63
2022-11-09T20:23:59.777Z,6.50
2022-11-09T20:27:26.924Z,7.25
2022-11-09T20:30:52.060Z,10.95
2022-11-09T20:34:15.499Z,11.73
2022-11-09T20:37:38.377Z,10.68
2022-11-09T20:41:07.072Z,8.80
2022-11-09T20:44:29.598Z,10.02
2022-11-09T20:48:10.520Z,10.57
2022-11-09T20:51:35.918Z,8.60
2022-11-09T20:54:58.799Z,11.68
2022-11-09T20:58:22.664Z,9.27
2022-11-09T21:01:46.707Z,8.68
2022-11-09T21:05:09.909Z,8.15
2022-11-09T21:08:33.282Z,8.63
2022-11-09T21:12:14.900Z,8.20
2022-11-09T21:15:38.072Z,7.40
2022-11-09T21:19:01.209Z,8.55
2022-11-09T21:22:43.838Z,9.50
2022-11-09T21:26:25.188Z,7.75
2022-11-09T21:29:54.227Z,4.50
2022-11-09T21:33:17.307Z,5.25
2022-11-09T21:36:40.240Z,2.30
2022-11-09T21:40:02.972Z,2.67
2022-11-09T21:43:26.775Z,3.03
2022-11-09T21:46:51.156Z,3.53
2022-11-09T21:50:14.032Z,2.88
2022-11-09T21:53:39.723Z,2.60
2022-11-09T21:57:02.154Z,3.00
2022-11-09T22:00:25.058Z,3.38
2022-11-09T22:03:48.717Z,3.72
2022-11-09T22:07:14.273Z,4.30
2022-11-09T22:10:37.353Z,3.38
2022-11-09T22:14:18.538Z,3.85
2022-11-09T22:17:42.530Z,3.50
2022-11-09T22:21:05.442Z,4.40
2022-11-09T22:24:31.587Z,3.40
2022-11-09T22:27:58.713Z,2.72
2022-11-09T22:31:21.191Z,3.08
2022-11-09T22:34:45.692Z,2.78
2022-11-09T22:38:08.677Z,2.83
2022-11-09T22:41:31.384Z,2.50
2022-11-09T22:44:55.082Z,4.25
2022-11-09T22:48:18.059Z,4.07
2022-11-09T22:51:41.125Z,3.70
2022-11-09T22:55:03.875Z,3.00
2022-11-09T22:58:27.721Z,3.58
2022-11-09T23:01:50.703Z,3.78
2022-11-09T23:05:13.431Z,2.78
2022-11-09T23:08:39.987Z,2.88
2022-11-09T23:15:24.994Z,3.08
2022-11-09T23:18:57.031Z,3.25
2022-11-09T23:22:20.109Z,3.90
2022-11-09T23:25:55.179Z,3.40
2022-11-09T23:29:19.215Z,4.10
2022-11-09T23:32:42.419Z,8.20
2022-11-09T23:36:06.585Z,6.25
2022-11-09T23:39:29.025Z,6.22
2022-11-09T23:42:52.762Z,4.65
2022-11-09T23:46:16.384Z,2.92
2022-11-09T23:49:39.037Z,4.70
2022-11-09T23:53:04.368Z,7.60
2022-11-09T23:56:27.712Z,3.20
2022-11-09T23:59:50.677Z,3.88
